sensor_id;sensor_type;location;lat;lon;timestamp;pressure;altitude;pressure_sealevel;temperature;humidity
75513;BME280;64090;49.770;18.760;2024-01-11T00:01:26;98853.98;;;-8.83;80.26
75513;BME280;64090;49.770;18.760;2024-01-11T00:04:28;98855.06;;;-8.80;80.25
75513;BME280;64090;49.770;18.760;2024-01-11T00:07:32;98845.11;;;-8.80;80.23
75513;BME280;64090;49.770;18.760;2024-01-11T00:10:35;98843.03;;;-8.79;80.32
75513;BME280;64090;49.770;18.760;2024-01-11T00:13:37;98840.46;;;-8.79;80.20
75513;BME280;64090;49.770;18.760;2024-01-11T00:16:54;98830.98;;;-8.78;80.38
75513;BME280;64090;49.770;18.760;2024-01-11T00:19:57;98828.10;;;-8.75;80.10
75513;BME280;64090;49.770;18.760;2024-01-11T00:23:00;98827.28;;;-8.71;80.12
75513;BME280;64090;49.770;18.760;2024-01-11T00:26:03;98823.60;;;-8.69;80.08
75513;BME280;64090;49.770;18.760;2024-01-11T00:29:06;98818.96;;;-8.70;80.03
75513;BME280;64090;49.770;18.760;2024-01-11T00:32:09;98814.59;;;-8.72;79.83
75513;BME280;64090;49.770;18.760;2024-01-11T00:35:12;98811.16;;;-8.72;80.39
75513;BME280;64090;49.770;18.760;2024-01-11T00:38:15;98804.15;;;-8.73;80.64
75513;BME280;64090;49.770;18.760;2024-01-11T00:41:18;98798.67;;;-8.73;80.43
75513;BME280;64090;49.770;18.760;2024-01-11T00:44:21;98806.45;;;-8.79;80.60
75513;BME280;64090;49.770;18.760;2024-01-11T00:47:24;98808.20;;;-8.85;80.78
75513;BME280;64090;49.770;18.760;2024-01-11T00:50:27;98807.59;;;-8.86;80.89
75513;BME280;64090;49.770;18.760;2024-01-11T00:53:29;98799.61;;;-8.89;80.99
75513;BME280;64090;49.770;18.760;2024-01-11T00:56:34;98794.46;;;-8.94;80.87
75513;BME280;64090;49.770;18.760;2024-01-11T00:59:37;98791.67;;;-8.98;80.93
75513;BME280;64090;49.770;18.760;2024-01-11T01:02:40;98786.48;;;-8.96;80.80
75513;BME280;64090;49.770;18.760;2024-01-11T01:05:43;98779.88;;;-8.94;80.77
75513;BME280;64090;49.770;18.760;2024-01-11T01:08:46;98769.11;;;-8.95;80.97
75513;BME280;64090;49.770;18.760;2024-01-11T01:11:49;98760.88;;;-8.96;80.94
75513;BME280;64090;49.770;18.760;2024-01-11T01:14:53;98753.45;;;-9.03;80.81
75513;BME280;64090;49.770;18.760;2024-01-11T01:17:55;98748.28;;;-9.12;81.06
75513;BME280;64090;49.770;18.760;2024-01-11T01:20:58;98743.88;;;-9.18;81.16
75513;BME280;64090;49.770;18.760;2024-01-11T01:24:01;98748.39;;;-9.24;81.30
75513;BME280;64090;49.770;18.760;2024-01-11T01:27:04;98745.90;;;-9.31;81.21
75513;BME280;64090;49.770;18.760;2024-01-11T01:30:07;98743.34;;;-9.40;81.07
75513;BME280;64090;49.770;18.760;2024-01-11T01:33:11;98734.31;;;-9.48;81.01
75513;BME280;64090;49.770;18.760;2024-01-11T01:36:14;98726.64;;;-9.53;81.02
75513;BME280;64090;49.770;18.760;2024-01-11T01:39:17;98723.15;;;-9.61;81.11
75513;BME280;64090;49.770;18.760;2024-01-11T01:42:20;98723.61;;;-9.70;81.09
75513;BME280;64090;49.770;18.760;2024-01-11T01:45:23;98728.61;;;-9.75;81.18
75513;BME280;64090;49.770;18.760;2024-01-11T01:48:27;98730.02;;;-9.81;81.10
75513;BME280;64090;49.770;18.760;2024-01-11T01:51:31;98723.55;;;-9.82;81.12
75513;BME280;64090;49.770;18.760;2024-01-11T01:54:35;98725.33;;;-9.70;81.34
75513;BME280;64090;49.770;18.760;2024-01-11T01:57:39;98718.20;;;-9.53;81.15
75513;BME280;64090;49.770;18.760;2024-01-11T02:00:44;98714.79;;;-9.34;81.19
75513;BME280;64090;49.770;18.760;2024-01-11T02:03:50;98719.83;;;-9.17;81.00
75513;BME280;64090;49.770;18.760;2024-01-11T02:06:55;98715.84;;;-8.99;80.63
75513;BME280;64090;49.770;18.760;2024-01-11T02:09:59;98715.42;;;-8.83;80.35
75513;BME280;64090;49.770;18.760;2024-01-11T02:13:02;98720.23;;;-8.71;80.34
75513;BME280;64090;49.770;18.760;2024-01-11T02:16:10;98727.39;;;-8.60;80.03
75513;BME280;64090;49.770;18.760;2024-01-11T02:19:16;98728.23;;;-8.51;79.76
75513;BME280;64090;49.770;18.760;2024-01-11T02:22:28;98726.58;;;-8.44;79.67
75513;BME280;64090;49.770;18.760;2024-01-11T02:25:31;98724.23;;;-8.38;79.55
75513;BME280;64090;49.770;18.760;2024-01-11T02:28:34;98719.83;;;-8.35;79.09
75513;BME280;64090;49.770;18.760;2024-01-11T02:31:37;98717.52;;;-8.34;78.94
75513;BME280;64090;49.770;18.760;2024-01-11T02:34:41;98716.48;;;-8.34;78.74
75513;BME280;64090;49.770;18.760;2024-01-11T02:37:45;98717.30;;;-8.32;78.72
75513;BME280;64090;49.770;18.760;2024-01-11T02:40:49;98716.39;;;-8.31;77.81
75513;BME280;64090;49.770;18.760;2024-01-11T02:43:53;98717.92;;;-8.31;78.04
75513;BME280;64090;49.770;18.760;2024-01-11T02:46:57;98718.66;;;-8.32;78.24
75513;BME280;64090;49.770;18.760;2024-01-11T02:49:59;98717.00;;;-8.34;78.39
75513;BME280;64090;49.770;18.760;2024-01-11T02:53:03;98723.05;;;-8.34;78.27
75513;BME280;64090;49.770;18.760;2024-01-11T02:56:05;98721.39;;;-8.31;78.22
75513;BME280;64090;49.770;18.760;2024-01-11T02:59:08;98714.84;;;-8.27;78.13
75513;BME280;64090;49.770;18.760;2024-01-11T03:02:12;98714.77;;;-8.25;77.87
75513;BME280;64090;49.770;18.760;2024-01-11T03:09:44;98719.18;;;-8.36;77.53
75513;BME280;64090;49.770;18.760;2024-01-11T03:12:47;98717.71;;;-8.46;77.66
75513;BME280;64090;49.770;18.760;2024-01-11T03:15:52;98712.89;;;-8.54;77.91
75513;BME280;64090;49.770;18.760;2024-01-11T03:18:55;98713.15;;;-8.60;77.85
75513;BME280;64090;49.770;18.760;2024-01-11T03:21:58;98721.00;;;-8.63;78.03
75513;BME280;64090;49.770;18.760;2024-01-11T03:25:17;98718.49;;;-8.65;78.09
75513;BME280;64090;49.770;18.760;2024-01-11T03:28:20;98712.85;;;-8.66;77.95
75513;BME280;64090;49.770;18.760;2024-01-11T03:31:26;98712.98;;;-8.69;78.00
75513;BME280;64090;49.770;18.760;2024-01-11T03:34:31;98716.84;;;-8.71;77.99
75513;BME280;64090;49.770;18.760;2024-01-11T03:37:37;98717.10;;;-8.74;78.12
75513;BME280;64090;49.770;18.760;2024-01-11T03:40:40;98716.98;;;-8.75;77.94
75513;BME280;64090;49.770;18.760;2024-01-11T03:43:49;98713.34;;;-8.75;77.97
75513;BME280;64090;49.770;18.760;2024-01-11T03:46:53;98710.42;;;-8.74;77.83
75513;BME280;64090;49.770;18.760;2024-01-11T03:49:56;98713.26;;;-8.76;77.94
75513;BME280;64090;49.770;18.760;2024-01-11T03:52:59;98715.27;;;-8.84;77.81
75513;BME280;64090;49.770;18.760;2024-01-11T03:56:05;98716.80;;;-8.92;77.67
75513;BME280;64090;49.770;18.760;2024-01-11T03:59:10;98717.88;;;-8.98;77.60
75513;BME280;64090;49.770;18.760;2024-01-11T04:02:13;98715.64;;;-9.02;77.51
75513;BME280;64090;49.770;18.760;2024-01-11T04:05:17;98717.64;;;-9.05;77.40
75513;BME280;64090;49.770;18.760;2024-01-11T04:08:20;98717.09;;;-9.08;77.38
75513;BME280;64090;49.770;18.760;2024-01-11T04:11:29;98724.21;;;-9.11;77.37
75513;BME280;64090;49.770;18.760;2024-01-11T04:14:38;98719.37;;;-9.15;77.43
75513;BME280;64090;49.770;18.760;2024-01-11T04:20:57;98724.05;;;-9.25;77.63
75513;BME280;64090;49.770;18.760;2024-01-11T04:24:03;98711.79;;;-9.27;77.80
75513;BME280;64090;49.770;18.760;2024-01-11T04:27:06;98706.86;;;-9.28;77.80
75513;BME280;64090;49.770;18.760;2024-01-11T04:30:09;98708.65;;;-9.30;77.72
75513;BME280;64090;49.770;18.760;2024-01-11T04:33:12;98715.52;;;-9.31;77.72
75513;BME280;64090;49.770;18.760;2024-01-11T04:36:16;98711.26;;;-9.32;77.81
75513;BME280;64090;49.770;18.760;2024-01-11T04:39:19;98698.95;;;-9.33;77.91
75513;BME280;64090;49.770;18.760;2024-01-11T04:42:22;98689.43;;;-9.35;77.93
75513;BME280;64090;49.770;18.760;2024-01-11T04:45:25;98684.88;;;-9.38;78.08
75513;BME280;64090;49.770;18.760;2024-01-11T04:48:28;98684.81;;;-9.40;78.12
75513;BME280;64090;49.770;18.760;2024-01-11T04:51:31;98689.11;;;-9.45;78.10
75513;BME280;64090;49.770;18.760;2024-01-11T04:54:34;98697.66;;;-9.49;78.05
75513;BME280;64090;49.770;18.760;2024-01-11T04:57:37;98703.23;;;-9.56;78.22
75513;BME280;64090;49.770;18.760;2024-01-11T05:00:40;98708.58;;;-9.62;78.40
75513;BME280;64090;49.770;18.760;2024-01-11T05:03:44;98703.74;;;-9.65;78.41
75513;BME280;64090;49.770;18.760;2024-01-11T05:06:48;98703.52;;;-9.69;78.65
75513;BME280;64090;49.770;18.760;2024-01-11T05:09:51;98699.48;;;-9.71;79.63
75513;BME280;64090;49.770;18.760;2024-01-11T05:12:54;98695.91;;;-9.71;79.33
75513;BME280;64090;49.770;18.760;2024-01-11T05:15:58;98695.14;;;-9.74;79.29
75513;BME280;64090;49.770;18.760;2024-01-11T05:19:01;98695.40;;;-9.76;79.40
75513;BME280;64090;49.770;18.760;2024-01-11T05:22:04;98684.60;;;-9.76;79.77
75513;BME280;64090;49.770;18.760;2024-01-11T05:25:07;98673.83;;;-9.77;79.62
75513;BME280;64090;49.770;18.760;2024-01-11T05:28:10;98673.72;;;-9.79;79.59
75513;BME280;64090;49.770;18.760;2024-01-11T05:31:14;98666.77;;;-9.82;79.69
75513;BME280;64090;49.770;18.760;2024-01-11T05:34:19;98664.28;;;-9.84;80.22
75513;BME280;64090;49.770;18.760;2024-01-11T05:37:22;98657.41;;;-9.83;80.16
75513;BME280;64090;49.770;18.760;2024-01-11T05:40:25;98663.72;;;-9.82;79.94
75513;BME280;64090;49.770;18.760;2024-01-11T05:43:28;98661.15;;;-9.83;79.94
75513;BME280;64090;49.770;18.760;2024-01-11T05:46:31;98659.80;;;-9.83;79.93
75513;BME280;64090;49.770;18.760;2024-01-11T05:49:35;98669.90;;;-9.83;79.91
75513;BME280;64090;49.770;18.760;2024-01-11T05:52:38;98670.91;;;-9.82;79.93
75513;BME280;64090;49.770;18.760;2024-01-11T05:55:42;98667.44;;;-9.81;79.88
75513;BME280;64090;49.770;18.760;2024-01-11T05:58:45;98659.27;;;-9.78;80.11
75513;BME280;64090;49.770;18.760;2024-01-11T06:01:48;98655.56;;;-9.70;80.31
75513;BME280;64090;49.770;18.760;2024-01-11T06:04:51;98639.33;;;-9.63;80.14
75513;BME280;64090;49.770;18.760;2024-01-11T06:07:54;98628.55;;;-9.54;80.17
75513;BME280;64090;49.770;18.760;2024-01-11T06:10:58;98626.27;;;-9.49;80.15
75513;BME280;64090;49.770;18.760;2024-01-11T06:14:01;98627.02;;;-9.45;80.29
75513;BME280;64090;49.770;18.760;2024-01-11T06:17:05;98624.30;;;-9.46;80.12
75513;BME280;64090;49.770;18.760;2024-01-11T06:20:09;98614.34;;;-9.50;80.09
75513;BME280;64090;49.770;18.760;2024-01-11T06:23:13;98599.02;;;-9.53;80.35
75513;BME280;64090;49.770;18.760;2024-01-11T06:26:16;98595.98;;;-9.54;80.50
75513;BME280;64090;49.770;18.760;2024-01-11T06:29:19;98589.77;;;-9.58;80.31
75513;BME280;64090;49.770;18.760;2024-01-11T06:32:22;98590.52;;;-9.64;80.42
75513;BME280;64090;49.770;18.760;2024-01-11T06:35:25;98604.59;;;-9.69;80.41
75513;BME280;64090;49.770;18.760;2024-01-11T06:38:28;98608.13;;;-9.72;80.47
75513;BME280;64090;49.770;18.760;2024-01-11T06:41:31;98604.45;;;-9.74;80.46
75513;BME280;64090;49.770;18.760;2024-01-11T06:44:34;98594.32;;;-9.74;80.42
75513;BME280;64090;49.770;18.760;2024-01-11T06:47:37;98596.30;;;-9.72;80.50
75513;BME280;64090;49.770;18.760;2024-01-11T06:50:51;98607.06;;;-9.67;80.66
75513;BME280;64090;49.770;18.760;2024-01-11T06:54:14;98613.80;;;-9.59;80.56
75513;BME280;64090;49.770;18.760;2024-01-11T06:57:18;98603.57;;;-9.47;80.74
75513;BME280;64090;49.770;18.760;2024-01-11T07:00:21;98599.67;;;-9.30;81.05
75513;BME280;64090;49.770;18.760;2024-01-11T07:03:24;98596.23;;;-9.12;81.33
75513;BME280;64090;49.770;18.760;2024-01-11T07:06:28;98600.58;;;-8.93;81.21
75513;BME280;64090;49.770;18.760;2024-01-11T07:09:31;98602.61;;;-8.76;81.10
75513;BME280;64090;49.770;18.760;2024-01-11T07:12:34;98610.06;;;-8.56;81.13
75513;BME280;64090;49.770;18.760;2024-01-11T07:15:38;98604.89;;;-8.36;80.96
75513;BME280;64090;49.770;18.760;2024-01-11T07:18:41;98592.73;;;-8.17;80.85
75513;BME280;64090;49.770;18.760;2024-01-11T07:21:44;98599.66;;;-7.99;80.83
75513;BME280;64090;49.770;18.760;2024-01-11T07:24:47;98597.67;;;-7.77;80.65
75513;BME280;64090;49.770;18.760;2024-01-11T07:27:51;98577.82;;;-7.57;80.52
75513;BME280;64090;49.770;18.760;2024-01-11T07:30:56;98568.09;;;-7.37;80.08
75513;BME280;64090;49.770;18.760;2024-01-11T07:33:59;98568.44;;;-7.19;78.93
75513;BME280;64090;49.770;18.760;2024-01-11T07:37:03;98573.23;;;-7.00;79.75
75513;BME280;64090;49.770;18.760;2024-01-11T07:40:07;98566.42;;;-6.81;79.76
75513;BME280;64090;49.770;18.760;2024-01-11T07:43:15;98561.10;;;-6.61;79.69
75513;BME280;64090;49.770;18.760;2024-01-11T07:46:18;98556.27;;;-6.44;79.07
75513;BME280;64090;49.770;18.760;2024-01-11T07:49:38;98548.60;;;-6.29;78.75
75513;BME280;64090;49.770;18.760;2024-01-11T07:52:54;98547.50;;;-6.17;78.43
75513;BME280;64090;49.770;18.760;2024-01-11T07:56:02;98536.82;;;-6.01;78.55
75513;BME280;64090;49.770;18.760;2024-01-11T07:59:24;98535.29;;;-5.86;78.74
75513;BME280;64090;49.770;18.760;2024-01-11T08:02:27;98536.34;;;-5.74;78.71
75513;BME280;64090;49.770;18.760;2024-01-11T08:05:33;98520.07;;;-5.54;78.60
75513;BME280;64090;49.770;18.760;2024-01-11T08:08:39;98509.30;;;-5.37;76.39
75513;BME280;64090;49.770;18.760;2024-01-11T08:11:55;98518.27;;;-5.25;77.10
75513;BME280;64090;49.770;18.760;2024-01-11T08:15:24;98529.30;;;-5.12;76.57
75513;BME280;64090;49.770;18.760;2024-01-11T08:18:46;98549.41;;;-4.89;75.25
75513;BME280;64090;49.770;18.760;2024-01-11T08:22:07;98570.68;;;-4.71;73.65
75513;BME280;64090;49.770;18.760;2024-01-11T08:25:52;98568.70;;;-4.40;75.91
75513;BME280;64090;49.770;18.760;2024-01-11T08:28:58;98561.71;;;-4.07;74.84
75513;BME280;64090;49.770;18.760;2024-01-11T08:32:18;98554.11;;;-3.82;74.65
75513;BME280;64090;49.770;18.760;2024-01-11T08:35:36;98548.13;;;-3.44;75.12
75513;BME280;64090;49.770;18.760;2024-01-11T08:38:45;98537.10;;;-3.08;72.57
75513;BME280;64090;49.770;18.760;2024-01-11T08:41:58;98525.77;;;-2.83;73.08
75513;BME280;64090;49.770;18.760;2024-01-11T08:48:43;98523.11;;;-2.46;74.06
75513;BME280;64090;49.770;18.760;2024-01-11T08:52:02;98509.31;;;-2.31;71.69
75513;BME280;64090;49.770;18.760;2024-01-11T08:55:06;98508.18;;;-2.22;70.26
75513;BME280;64090;49.770;18.760;2024-01-11T09:01:47;98534.09;;;-1.51;75.04
75513;BME280;64090;49.770;18.760;2024-01-11T09:05:11;98531.63;;;-1.00;73.95
75513;BME280;64090;49.770;18.760;2024-01-11T09:08:19;98524.02;;;-0.63;70.64
75513;BME280;64090;49.770;18.760;2024-01-11T09:11:33;98515.38;;;-0.50;69.19
75513;BME280;64090;49.770;18.760;2024-01-11T09:14:57;98520.43;;;-0.36;71.01
75513;BME280;64090;49.770;18.760;2024-01-11T09:18:07;98510.92;;;-0.26;70.53
75513;BME280;64090;49.770;18.760;2024-01-11T09:21:30;98509.55;;;-0.16;71.74
75513;BME280;64090;49.770;18.760;2024-01-11T09:24:35;98505.70;;;-0.14;69.34
75513;BME280;64090;49.770;18.760;2024-01-11T09:27:47;98502.91;;;-0.08;68.03
75513;BME280;64090;49.770;18.760;2024-01-11T09:30:50;98493.95;;;0.12;70.75
75513;BME280;64090;49.770;18.760;2024-01-11T09:33:53;98503.02;;;0.31;71.13
75513;BME280;64090;49.770;18.760;2024-01-11T09:37:04;98507.93;;;0.57;71.32
75513;BME280;64090;49.770;18.760;2024-01-11T09:40:08;98508.75;;;0.82;70.95
75513;BME280;64090;49.770;18.760;2024-01-11T09:43:17;98515.15;;;1.02;69.18
75513;BME280;64090;49.770;18.760;2024-01-11T09:46:21;98515.80;;;1.19;67.68
75513;BME280;64090;49.770;18.760;2024-01-11T09:49:26;98509.79;;;1.31;69.23
75513;BME280;64090;49.770;18.760;2024-01-11T09:52:35;98494.38;;;1.48;69.98
75513;BME280;64090;49.770;18.760;2024-01-11T09:55:41;98486.64;;;1.58;70.07
75513;BME280;64090;49.770;18.760;2024-01-11T09:58:47;98490.19;;;1.62;68.12
75513;BME280;64090;49.770;18.760;2024-01-11T10:02:02;98494.42;;;1.87;69.65
75513;BME280;64090;49.770;18.760;2024-01-11T10:05:06;98488.36;;;2.11;68.40
75513;BME280;64090;49.770;18.760;2024-01-11T10:08:09;98489.88;;;2.19;66.62
75513;BME280;64090;49.770;18.760;2024-01-11T10:11:13;98492.83;;;2.24;68.62
75513;BME280;64090;49.770;18.760;2024-01-11T10:14:16;98492.61;;;2.32;68.04
75513;BME280;64090;49.770;18.760;2024-01-11T10:17:20;98494.95;;;2.35;67.80
75513;BME280;64090;49.770;18.760;2024-01-11T10:20:27;98494.34;;;2.34;68.24
75513;BME280;64090;49.770;18.760;2024-01-11T10:23:33;98489.48;;;2.50;67.99
75513;BME280;64090;49.770;18.760;2024-01-11T10:26:37;98481.73;;;2.63;66.53
75513;BME280;64090;49.770;18.760;2024-01-11T10:29:41;98474.02;;;2.74;65.78
75513;BME280;64090;49.770;18.760;2024-01-11T10:32:47;98472.94;;;2.82;68.01
75513;BME280;64090;49.770;18.760;2024-01-11T10:35:52;98470.54;;;2.76;67.40
75513;BME280;64090;49.770;18.760;2024-01-11T10:38:57;98465.38;;;2.73;66.73
75513;BME280;64090;49.770;18.760;2024-01-11T10:42:06;98459.81;;;2.77;67.13
75513;BME280;64090;49.770;18.760;2024-01-11T10:45:18;98463.74;;;2.78;67.38
75513;BME280;64090;49.770;18.760;2024-01-11T10:48:22;98458.10;;;2.82;67.16
75513;BME280;64090;49.770;18.760;2024-01-11T10:51:28;98462.61;;;2.86;66.08
75513;BME280;64090;49.770;18.760;2024-01-11T10:54:34;98452.02;;;2.58;64.71
75513;BME280;64090;49.770;18.760;2024-01-11T10:57:37;98447.38;;;2.65;65.43
75513;BME280;64090;49.770;18.760;2024-01-11T11:00:42;98435.00;;;2.78;65.71
75513;BME280;64090;49.770;18.760;2024-01-11T11:03:45;98432.22;;;2.86;65.66
75513;BME280;64090;49.770;18.760;2024-01-11T11:06:52;98426.10;;;2.83;65.61
75513;BME280;64090;49.770;18.760;2024-01-11T11:10:01;98425.42;;;2.76;64.70
75513;BME280;64090;49.770;18.760;2024-01-11T11:13:08;98419.18;;;2.42;65.31
75513;BME280;64090;49.770;18.760;2024-01-11T11:16:15;98408.85;;;2.46;65.90
75513;BME280;64090;49.770;18.760;2024-01-11T11:19:20;98405.52;;;2.69;63.32
75513;BME280;64090;49.770;18.760;2024-01-11T11:22:27;98392.42;;;2.63;62.52
75513;BME280;64090;49.770;18.760;2024-01-11T11:25:30;98377.16;;;2.52;63.36
75513;BME280;64090;49.770;18.760;2024-01-11T11:28:33;98373.37;;;2.49;61.49
75513;BME280;64090;49.770;18.760;2024-01-11T11:31:44;98365.47;;;2.57;62.40
75513;BME280;64090;49.770;18.760;2024-01-11T11:34:50;98353.80;;;2.59;61.98
75513;BME280;64090;49.770;18.760;2024-01-11T11:37:55;98355.33;;;2.44;62.11
75513;BME280;64090;49.770;18.760;2024-01-11T11:41:00;98352.80;;;2.41;62.40
75513;BME280;64090;49.770;18.760;2024-01-11T11:44:04;98341.92;;;2.24;60.77
75513;BME280;64090;49.770;18.760;2024-01-11T11:47:21;98340.41;;;2.11;61.45
75513;BME280;64090;49.770;18.760;2024-01-11T11:50:26;98341.37;;;2.05;60.82
75513;BME280;64090;49.770;18.760;2024-01-11T11:53:36;98337.96;;;2.01;62.02
75513;BME280;64090;49.770;18.760;2024-01-11T11:56:40;98339.02;;;1.85;60.66
75513;BME280;64090;49.770;18.760;2024-01-11T11:59:46;98337.05;;;1.78;60.57
75513;BME280;64090;49.770;18.760;2024-01-11T12:02:50;98339.83;;;1.78;61.14
75513;BME280;64090;49.770;18.760;2024-01-11T12:05:59;98333.21;;;1.78;61.04
75513;BME280;64090;49.770;18.760;2024-01-11T12:09:03;98330.90;;;1.81;62.15
75513;BME280;64090;49.770;18.760;2024-01-11T12:12:06;98332.45;;;1.83;61.06
75513;BME280;64090;49.770;18.760;2024-01-11T12:15:18;98335.70;;;1.84;62.79
75513;BME280;64090;49.770;18.760;2024-01-11T12:18:21;98329.03;;;1.88;63.43
75513;BME280;64090;49.770;18.760;2024-01-11T12:21:25;98321.20;;;1.89;63.34
75513;BME280;64090;49.770;18.760;2024-01-11T12:24:29;98329.19;;;1.86;63.79
75513;BME280;64090;49.770;18.760;2024-01-11T12:27:33;98327.55;;;1.89;63.84
75513;BME280;64090;49.770;18.760;2024-01-11T12:30:38;98332.89;;;1.94;64.25
75513;BME280;64090;49.770;18.760;2024-01-11T12:33:42;98334.24;;;1.98;63.13
75513;BME280;64090;49.770;18.760;2024-01-11T12:36:46;98330.57;;;1.98;62.43
75513;BME280;64090;49.770;18.760;2024-01-11T12:39:57;98331.42;;;1.98;63.01
75513;BME280;64090;49.770;18.760;2024-01-11T12:43:00;98330.77;;;2.02;63.15
75513;BME280;64090;49.770;18.760;2024-01-11T12:46:04;98319.11;;;1.97;63.08
75513;BME280;64090;49.770;18.760;2024-01-11T12:49:12;98313.02;;;1.93;64.00
75513;BME280;64090;49.770;18.760;2024-01-11T12:52:21;98305.21;;;1.85;64.02
75513;BME280;64090;49.770;18.760;2024-01-11T12:55:27;98300.83;;;1.72;64.51
75513;BME280;64090;49.770;18.760;2024-01-11T12:58:47;98302.50;;;1.62;63.91
75513;BME280;64090;49.770;18.760;2024-01-11T13:01:56;98295.38;;;1.57;64.89
75513;BME280;64090;49.770;18.760;2024-01-11T13:05:03;98290.23;;;1.52;63.64
75513;BME280;64090;49.770;18.760;2024-01-11T13:08:12;98291.46;;;1.48;63.58
75513;BME280;64090;49.770;18.760;2024-01-11T13:11:36;98285.75;;;1.43;62.73
75513;BME280;64090;49.770;18.760;2024-01-11T13:14:39;98284.50;;;1.44;63.40
75513;BME280;64090;49.770;18.760;2024-01-11T13:17:43;98281.46;;;1.41;62.73
75513;BME280;64090;49.770;18.760;2024-01-11T13:20:49;98277.53;;;1.37;62.58
75513;BME280;64090;49.770;18.760;2024-01-11T13:23:59;98278.25;;;1.36;63.19
75513;BME280;64090;49.770;18.760;2024-01-11T13:27:03;98269.48;;;1.32;63.27
75513;BME280;64090;49.770;18.760;2024-01-11T13:30:06;98255.14;;;1.26;63.38
75513;BME280;64090;49.770;18.760;2024-01-11T13:33:11;98252.46;;;1.21;63.84
75513;BME280;64090;49.770;18.760;2024-01-11T13:36:15;98247.42;;;1.14;63.83
75513;BME280;64090;49.770;18.760;2024-01-11T13:39:18;98243.54;;;1.07;63.69
75513;BME280;64090;49.770;18.760;2024-01-11T13:42:25;98235.46;;;0.99;64.00
75513;BME280;64090;49.770;18.760;2024-01-11T13:48:49;98235.57;;;0.84;63.52
75513;BME280;64090;49.770;18.760;2024-01-11T13:52:07;98240.54;;;0.75;62.66
75513;BME280;64090;49.770;18.760;2024-01-11T13:55:13;98235.55;;;0.72;63.10
75513;BME280;64090;49.770;18.760;2024-01-11T13:58:30;98236.95;;;0.61;62.27
75513;BME280;64090;49.770;18.760;2024-01-11T14:01:56;98239.56;;;0.53;62.91
75513;BME280;64090;49.770;18.760;2024-01-11T14:05:04;98241.02;;;0.44;62.14
75513;BME280;64090;49.770;18.760;2024-01-11T14:08:12;98243.13;;;0.35;60.75
75513;BME280;64090;49.770;18.760;2024-01-11T14:11:28;98249.10;;;0.27;58.71
75513;BME280;64090;49.770;18.760;2024-01-11T14:14:42;98253.86;;;0.20;60.86
75513;BME280;64090;49.770;18.760;2024-01-11T14:17:48;98251.30;;;0.10;60.87
75513;BME280;64090;49.770;18.760;2024-01-11T14:20:57;98249.81;;;0.03;61.22
75513;BME280;64090;49.770;18.760;2024-01-11T14:24:04;98251.16;;;-0.05;60.43
75513;BME280;64090;49.770;18.760;2024-01-11T14:27:07;98250.88;;;-0.10;60.49
75513;BME280;64090;49.770;18.760;2024-01-11T14:30:16;98252.73;;;-0.15;61.30
75513;BME280;64090;49.770;18.760;2024-01-11T14:33:22;98249.26;;;-0.22;60.63
75513;BME280;64090;49.770;18.760;2024-01-11T14:36:27;98246.75;;;-0.28;61.61
75513;BME280;64090;49.770;18.760;2024-01-11T14:39:33;98253.15;;;-0.36;59.81
75513;BME280;64090;49.770;18.760;2024-01-11T14:42:37;98252.85;;;-0.41;59.26
75513;BME280;64090;49.770;18.760;2024-01-11T14:45:46;98255.01;;;-0.46;60.13
75513;BME280;64090;49.770;18.760;2024-01-11T14:52:19;98253.89;;;-0.58;61.87
75513;BME280;64090;49.770;18.760;2024-01-11T14:55:35;98253.19;;;-0.65;61.91
75513;BME280;64090;49.770;18.760;2024-01-11T14:58:50;98253.34;;;-0.69;62.51
75513;BME280;64090;49.770;18.760;2024-01-11T15:01:57;98251.88;;;-0.75;61.34
75513;BME280;64090;49.770;18.760;2024-01-11T15:05:06;98250.20;;;-0.80;61.82
75513;BME280;64090;49.770;18.760;2024-01-11T15:08:13;98249.41;;;-0.85;59.83
75513;BME280;64090;49.770;18.760;2024-01-11T15:11:16;98253.16;;;-0.89;60.31
75513;BME280;64090;49.770;18.760;2024-01-11T15:14:43;98255.55;;;-0.91;60.70
75513;BME280;64090;49.770;18.760;2024-01-11T15:17:52;98262.32;;;-0.95;61.54
75513;BME280;64090;49.770;18.760;2024-01-11T15:24:17;98279.16;;;-1.01;60.64
75513;BME280;64090;49.770;18.760;2024-01-11T15:27:32;98276.95;;;-1.04;60.20
75513;BME280;64090;49.770;18.760;2024-01-11T15:30:56;98283.16;;;-1.10;60.49
75513;BME280;64090;49.770;18.760;2024-01-11T15:34:05;98288.52;;;-1.16;61.21
75513;BME280;64090;49.770;18.760;2024-01-11T15:37:10;98285.24;;;-1.21;61.15
75513;BME280;64090;49.770;18.760;2024-01-11T15:40:27;98279.98;;;-1.27;60.88
75513;BME280;64090;49.770;18.760;2024-01-11T15:43:36;98280.90;;;-1.35;61.18
75513;BME280;64090;49.770;18.760;2024-01-11T15:46:45;98283.85;;;-1.42;61.61
75513;BME280;64090;49.770;18.760;2024-01-11T15:49:56;98281.84;;;-1.57;62.85
75513;BME280;64090;49.770;18.760;2024-01-11T15:56:42;98288.95;;;-1.70;64.13
75513;BME280;64090;49.770;18.760;2024-01-11T15:59:48;98287.83;;;-1.88;65.31
75513;BME280;64090;49.770;18.760;2024-01-11T16:02:57;98283.85;;;-2.00;65.93
75513;BME280;64090;49.770;18.760;2024-01-11T16:06:13;98282.52;;;-2.08;66.97
75513;BME280;64090;49.770;18.760;2024-01-11T16:09:19;98286.08;;;-2.16;67.96
75513;BME280;64090;49.770;18.760;2024-01-11T16:12:29;98294.05;;;-2.26;68.78
75513;BME280;64090;49.770;18.760;2024-01-11T16:15:42;98295.39;;;-2.32;69.30
75513;BME280;64090;49.770;18.760;2024-01-11T16:18:46;98299.15;;;-2.44;69.90
75513;BME280;64090;49.770;18.760;2024-01-11T16:21:58;98299.66;;;-2.51;70.54
75513;BME280;64090;49.770;18.760;2024-01-11T16:25:12;98306.33;;;-2.57;70.89
75513;BME280;64090;49.770;18.760;2024-01-11T16:28:23;98307.48;;;-2.63;71.09
75513;BME280;64090;49.770;18.760;2024-01-11T16:38:27;98306.42;;;-2.93;76.10
75513;BME280;64090;49.770;18.760;2024-01-11T16:41:34;98307.48;;;-3.08;78.34
75513;BME280;64090;49.770;18.760;2024-01-11T16:44:39;98307.66;;;-3.18;79.68
75513;BME280;64090;49.770;18.760;2024-01-11T16:52:06;98337.22;;;-3.41;82.18
75513;BME280;64090;49.770;18.760;2024-01-11T16:55:09;98337.70;;;-3.50;82.99
75513;BME280;64090;49.770;18.760;2024-01-11T16:58:13;98339.30;;;-3.59;84.01